Time;durP1;ratioP1;P1;durP2;ratioP2;P2;SDS_P1;SDS_P2;PMS_P1;PMS_P2;Temp;Humidity;BMP_temperature;BMP_pressure;BME280_temperature;BME280_humidity;BME280_pressure;Samples;Min_cycle;Max_cycle;Signal;HPM_P1;HPM_P2
2023/10/03 00:02:18;;;;;;;29.35;14.15;;;15.40;99.90;;;;;;5036098;28;20436;-69
2023/10/03 00:04:45;;;;;;;30.08;15.20;;;15.30;99.90;;;;;;5035698;28;20084;-69
2023/10/03 00:07:11;;;;;;;28.75;14.95;;;15.30;99.90;;;;;;5036085;28;20029;-69
2023/10/03 00:09:36;;;;;;;30.92;14.77;;;15.20;99.90;;;;;;5036025;28;20026;-68
2023/10/03 00:12:02;;;;;;;33.83;15.38;;;15.20;99.90;;;;;;5035693;28;20068;-69
2023/10/03 00:14:28;;;;;;;29.00;14.65;;;15.20;99.90;;;;;;5035862;28;20029;-70
2023/10/03 00:16:54;;;;;;;34.65;16.92;;;15.10;99.90;;;;;;5036111;28;20057;-69
2023/10/03 00:19:20;;;;;;;33.45;15.38;;;15.20;99.90;;;;;;5035574;28;20379;-69
2023/10/03 00:21:45;;;;;;;37.45;16.17;;;15.20;99.90;;;;;;5035346;28;20032;-69
2023/10/03 00:24:11;;;;;;;32.28;15.82;;;15.30;99.90;;;;;;5035672;28;20105;-69
2023/10/03 00:26:39;;;;;;;33.67;16.83;;;15.30;99.90;;;;;;5035392;28;20465;-68
2023/10/03 00:29:09;;;;;;;32.03;16.58;;;15.30;99.90;;;;;;5035725;28;20030;-69
2023/10/03 00:31:35;;;;;;;37.20;16.75;;;15.40;99.90;;;;;;5035488;28;20469;-69
2023/10/03 00:34:01;;;;;;;34.75;17.02;;;15.40;99.90;;;;;;5035523;28;20108;-68
2023/10/03 00:36:26;;;;;;;30.67;16.05;;;15.40;99.90;;;;;;5034778;28;20033;-69
2023/10/03 00:38:52;;;;;;;31.85;16.27;;;15.30;99.90;;;;;;5035699;28;20037;-68
2023/10/03 00:41:19;;;;;;;29.92;15.63;;;15.30;99.90;;;;;;5035287;28;20041;-68
2023/10/03 00:44:01;;;;;;;28.90;15.57;;;15.20;99.90;;;;;;5035722;28;20030;-68
2023/10/03 00:46:30;;;;;;;35.47;16.52;;;15.30;99.90;;;;;;5035366;28;20084;-68
2023/10/03 00:48:56;;;;;;;38.17;18.33;;;15.30;99.90;;;;;;5035371;28;20025;-68
2023/10/03 00:51:25;;;;;;;38.97;18.55;;;15.30;99.90;;;;;;5035533;28;20025;-69
2023/10/03 00:53:55;;;;;;;35.13;17.30;;;15.40;99.90;;;;;;5034962;28;20113;-69
2023/10/03 00:56:22;;;;;;;35.45;17.42;;;15.50;99.90;;;;;;5035044;28;20022;-68
2023/10/03 00:58:48;;;;;;;38.88;18.27;;;15.50;99.90;;;;;;5035082;28;20041;-68
2023/10/03 01:01:15;;;;;;;34.45;17.08;;;15.50;99.90;;;;;;5035301;28;20029;-68
2023/10/03 01:03:40;;;;;;;37.95;18.23;;;15.50;99.90;;;;;;5034832;28;20033;-69
2023/10/03 01:06:09;;;;;;;34.22;17.45;;;15.50;99.90;;;;;;5034771;28;20460;-68
2023/10/03 01:08:39;;;;;;;38.33;17.05;;;15.50;99.90;;;;;;5034720;28;20112;-69
2023/10/03 01:11:05;;;;;;;34.10;16.77;;;15.50;99.90;;;;;;5034499;28;20742;-69
2023/10/03 01:13:31;;;;;;;34.35;16.95;;;15.50;99.90;;;;;;5034753;28;20026;-68
2023/10/03 01:15:56;;;;;;;33.13;16.90;;;15.50;99.90;;;;;;5035025;28;20037;-69
2023/10/03 01:18:22;;;;;;;33.90;17.65;;;15.50;99.90;;;;;;5034663;28;20029;-69
2023/10/03 01:20:51;;;;;;;32.17;16.60;;;15.40;99.90;;;;;;5034962;28;20510;-69
2023/10/03 01:23:19;;;;;;;33.08;16.48;;;15.40;99.90;;;;;;5034659;28;20034;-69
2023/10/03 01:25:44;;;;;;;41.85;17.48;;;15.60;99.90;;;;;;5034697;28;20213;-69
2023/10/03 01:28:12;;;;;;;31.73;17.40;;;15.60;99.90;;;;;;5034008;28;20111;-69
2023/10/03 01:30:40;;;;;;;33.00;16.13;;;15.70;99.90;;;;;;5034542;28;20120;-69
2023/10/03 01:33:07;;;;;;;34.88;17.20;;;15.70;99.90;;;;;;5034125;28;20030;-69
2023/10/03 01:35:33;;;;;;;33.42;17.17;;;15.80;99.90;;;;;;5033983;28;20033;-68
2023/10/03 01:37:58;;;;;;;37.42;17.30;;;15.80;99.90;;;;;;5034604;28;20030;-69
2023/10/03 01:40:26;;;;;;;31.95;16.25;;;15.70;99.90;;;;;;5034225;28;20037;-68
2023/10/03 01:42:52;;;;;;;33.28;16.50;;;15.70;99.90;;;;;;5033451;28;20115;-68
2023/10/03 01:45:25;;;;;;;35.22;16.95;;;15.70;99.90;;;;;;5034235;28;20083;-69
2023/10/03 01:47:51;;;;;;;35.03;16.70;;;15.70;99.90;;;;;;5034463;28;20022;-69
2023/10/03 01:50:19;;;;;;;31.40;15.63;;;15.80;99.90;;;;;;5033921;28;20037;-69
2023/10/03 01:52:46;;;;;;;35.28;17.00;;;15.80;99.90;;;;;;5034221;28;20367;-69
2023/10/03 01:55:14;;;;;;;35.78;17.45;;;15.80;99.90;;;;;;5033745;28;20029;-69
2023/10/03 01:57:41;;;;;;;32.42;17.20;;;15.80;99.90;;;;;;5034037;28;20040;-69
2023/10/03 02:00:20;;;;;;;34.85;17.48;;;15.80;99.90;;;;;;5034016;28;20029;-68
2023/10/03 02:02:47;;;;;;;29.33;15.02;;;15.80;99.90;;;;;;5033097;28;20029;-69
2023/10/03 02:05:14;;;;;;;30.50;15.55;;;15.80;99.90;;;;;;5034317;28;20032;-69
2023/10/03 02:07:43;;;;;;;32.30;15.77;;;15.80;99.90;;;;;;5033839;28;20022;-69
2023/10/03 02:10:12;;;;;;;33.83;16.80;;;15.80;99.90;;;;;;5033836;28;20022;-69
2023/10/03 02:12:39;;;;;;;39.22;15.95;;;15.90;99.90;;;;;;5033499;28;20032;-69
2023/10/03 02:15:09;;;;;;;34.75;16.33;;;15.90;99.90;;;;;;5033525;28;20431;-69
2023/10/03 02:17:35;;;;;;;31.70;16.20;;;15.90;99.90;;;;;;5033521;28;20060;-69
2023/10/03 02:20:05;;;;;;;33.00;16.30;;;15.90;99.90;;;;;;5034002;28;20038;-69
2023/10/03 02:22:34;;;;;;;33.00;15.55;;;15.90;99.90;;;;;;5033467;28;20052;-69
2023/10/03 02:25:01;;;;;;;32.15;16.35;;;15.90;99.90;;;;;;5033061;28;20110;-75
2023/10/03 02:27:27;;;;;;;31.52;15.57;;;15.90;99.90;;;;;;5033844;28;20439;-69
2023/10/03 02:29:52;;;;;;;38.15;16.70;;;15.80;99.90;;;;;;5033674;28;20080;-69
2023/10/03 02:32:18;;;;;;;33.88;17.20;;;15.80;99.90;;;;;;5033592;28;20483;-69
2023/10/03 02:34:43;;;;;;;31.40;15.52;;;15.70;99.90;;;;;;5034192;28;20036;-69
2023/10/03 02:37:09;;;;;;;35.70;16.70;;;15.70;99.90;;;;;;5033521;28;20031;-69
2023/10/03 02:39:39;;;;;;;34.58;16.75;;;15.70;99.90;;;;;;5033523;28;20467;-69
2023/10/03 02:42:06;;;;;;;30.25;15.35;;;15.60;99.90;;;;;;5033313;28;20056;-68
2023/10/03 02:44:32;;;;;;;31.70;15.93;;;15.60;99.90;;;;;;5033625;28;20428;-69
2023/10/03 02:46:58;;;;;;;33.72;16.45;;;15.60;99.90;;;;;;5033380;28;20057;-68
2023/10/03 02:49:24;;;;;;;33.13;17.23;;;15.50;99.90;;;;;;5033675;28;20057;-69
2023/10/03 02:51:49;;;;;;;30.05;14.80;;;15.50;99.90;;;;;;5033681;28;20029;-68
2023/10/03 02:54:15;;;;;;;30.75;15.43;;;15.40;99.90;;;;;;5033294;28;20388;-68
2023/10/03 02:56:42;;;;;;;34.08;16.42;;;15.40;99.90;;;;;;5033477;28;20040;-69
2023/10/03 02:59:08;;;;;;;35.08;16.73;;;15.40;99.90;;;;;;5033259;28;20076;-69
2023/10/03 03:01:35;;;;;;;29.17;15.15;;;15.50;99.90;;;;;;5033208;28;20038;-69
2023/10/03 03:04:02;;;;;;;30.98;15.23;;;15.50;99.90;;;;;;5033449;28;20021;-69
2023/10/03 03:06:31;;;;;;;32.58;15.95;;;15.50;99.90;;;;;;5032837;28;20075;-69
2023/10/03 03:08:56;;;;;;;32.55;15.82;;;15.60;99.90;;;;;;5033294;28;20027;-69
2023/10/03 03:11:22;;;;;;;31.65;16.17;;;15.60;99.90;;;;;;5033337;28;20383;-69
2023/10/03 03:13:49;;;;;;;30.50;15.50;;;15.60;99.90;;;;;;5033150;28;20028;-77
2023/10/03 03:16:15;;;;;;;29.27;15.02;;;15.70;99.90;;;;;;5033192;28;20022;-69
2023/10/03 03:18:41;;;;;;;36.03;15.80;;;15.70;99.90;;;;;;5032776;28;20448;-69
2023/10/03 03:21:08;;;;;;;27.73;13.95;;;15.70;99.90;;;;;;5032727;28;20437;-69
2023/10/03 03:23:36;;;;;;;33.58;15.85;;;15.70;99.90;;;;;;5032890;28;20021;-69
2023/10/03 03:26:20;;;;;;;31.02;15.85;;;15.70;99.90;;;;;;5036797;28;20112;-69
2023/10/03 03:28:49;;;;;;;28.42;14.88;;;15.70;99.90;;;;;;5036792;28;20026;-69
2023/10/03 03:31:25;;;;;;;34.33;16.00;;;15.70;99.90;;;;;;5037089;28;20432;-69
2023/10/03 03:33:55;;;;;;;33.25;16.30;;;15.60;99.90;;;;;;5036669;28;20091;-69
2023/10/03 03:36:22;;;;;;;33.42;15.82;;;15.70;99.90;;;;;;5036874;28;20464;-69
2023/10/03 03:38:51;;;;;;;35.33;16.60;;;15.70;99.90;;;;;;5036695;28;20021;-69
2023/10/03 03:41:18;;;;;;;29.88;15.52;;;15.60;99.90;;;;;;5036277;28;20033;-69
2023/10/03 03:43:44;;;;;;;30.55;15.27;;;15.60;99.90;;;;;;5036049;28;20041;-69
2023/10/03 03:46:10;;;;;;;29.08;15.18;;;15.60;99.90;;;;;;5036623;28;20333;-69
2023/10/03 03:48:36;;;;;;;31.40;15.07;;;15.50;99.90;;;;;;5036316;28;20120;-69
2023/10/03 03:51:05;;;;;;;31.83;15.07;;;15.50;99.90;;;;;;5035799;28;20037;-69
2023/10/03 03:53:31;;;;;;;34.05;15.98;;;15.40;99.90;;;;;;5036395;28;20120;-69
2023/10/03 03:55:58;;;;;;;29.58;15.07;;;15.40;99.90;;;;;;5036226;28;20117;-69
2023/10/03 03:58:24;;;;;;;29.77;15.38;;;15.40;99.90;;;;;;5035991;28;20361;-69
2023/10/03 04:00:51;;;;;;;29.10;15.10;;;15.40;99.90;;;;;;5035222;28;20060;-69
2023/10/03 04:03:18;;;;;;;36.15;16.35;;;15.30;99.90;;;;;;5035295;28;20021;-69
2023/10/03 04:05:46;;;;;;;33.65;15.73;;;15.30;99.90;;;;;;5035204;28;20025;-69
2023/10/03 04:08:12;;;;;;;27.63;15.40;;;15.40;99.90;;;;;;5036029;28;20080;-69
2023/10/03 04:10:37;;;;;;;31.88;15.85;;;15.50;99.90;;;;;;5036146;28;20018;-69
2023/10/03 04:13:10;;;;;;;31.20;15.55;;;15.50;99.90;;;;;;5035859;28;20377;-69
2023/10/03 04:15:39;;;;;;;30.23;15.80;;;15.50;99.90;;;;;;5035497;28;20095;-69
2023/10/03 04:18:06;;;;;;;31.17;15.10;;;15.60;99.90;;;;;;5036055;28;20268;-75
2023/10/03 04:20:31;;;;;;;29.60;15.05;;;15.70;99.90;;;;;;5035768;28;20029;-69
2023/10/03 04:22:58;;;;;;;31.67;14.23;;;15.80;99.90;;;;;;5035976;28;20037;-69
2023/10/03 04:25:25;;;;;;;32.15;14.82;;;16.00;99.90;;;;;;5035641;28;20021;-69
2023/10/03 04:27:53;;;;;;;27.67;13.70;;;16.60;99.90;;;;;;5035446;28;20026;-69
2023/10/03 04:30:20;;;;;;;27.33;14.23;;;17.50;99.90;;;;;;5035628;28;20022;-69
2023/10/03 04:32:48;;;;;;;25.00;13.50;;;17.90;99.90;;;;;;5035944;28;20116;-69
2023/10/03 04:35:14;;;;;;;28.13;14.38;;;18.60;91.80;;;;;;5035537;28;20113;-68
2023/10/03 04:37:41;;;;;;;28.27;12.88;;;19.10;34.80;;;;;;5035389;28;20071;-69
2023/10/03 04:40:13;;;;;;;31.50;13.30;;;19.20;15.40;;;;;;5035470;28;20037;-69
2023/10/03 04:42:40;;;;;;;30.20;13.68;;;19.40;1.00;;;;;;5034521;28;20048;-69
2023/10/03 04:45:10;;;;;;;29.08;13.45;;;19.40;1.00;;;;;;5035166;28;20022;-69
2023/10/03 04:47:37;;;;;;;27.40;12.38;;;19.50;1.00;;;;;;5035425;28;20030;-69
2023/10/03 04:50:03;;;;;;;30.38;12.57;;;19.50;1.00;;;;;;5035111;28;20025;-69
2023/10/03 04:52:28;;;;;;;28.05;13.00;;;19.60;1.00;;;;;;5034587;28;20112;-69
2023/10/03 04:54:54;;;;;;;29.40;13.45;;;19.60;1.00;;;;;;5035297;28;20155;-69
2023/10/03 04:57:19;;;;;;;24.42;13.35;;;19.50;1.00;;;;;;5035569;28;20029;-69
2023/10/03 04:59:45;;;;;;;25.88;12.75;;;19.60;1.00;;;;;;5034778;28;20029;-69
2023/10/03 05:02:11;;;;;;;25.27;12.70;;;19.60;1.00;;;;;;5035318;28;20463;-69
2023/10/03 05:04:36;;;;;;;25.73;12.90;;;19.60;1.00;;;;;;5035066;28;20025;-69
2023/10/03 05:07:02;;;;;;;24.73;12.35;;;19.60;1.00;;;;;;5035128;28;20083;-69
2023/10/03 05:09:30;;;;;;;29.08;13.93;;;19.60;1.00;;;;;;5034439;28;20021;-69
2023/10/03 05:11:56;;;;;;;29.38;13.32;;;19.70;1.00;;;;;;5034617;28;20508;-70
2023/10/03 05:14:22;;;;;;;27.45;13.77;;;19.70;1.00;;;;;;5034844;28;20045;-69
2023/10/03 05:16:50;;;;;;;26.80;12.70;;;19.80;1.00;;;;;;5034856;28;20033;-69
2023/10/03 05:19:17;;;;;;;28.63;12.65;;;19.90;1.00;;;;;;5035012;28;20459;-69
2023/10/03 05:21:44;;;;;;;26.75;12.73;;;19.90;1.00;;;;;;5034560;28;20136;-69
2023/10/03 05:24:11;;;;;;;26.27;12.48;;;19.90;1.00;;;;;;5035010;28;20372;-69
2023/10/03 05:26:39;;;;;;;29.23;12.43;;;19.90;1.00;;;;;;5034530;28;20469;-69
2023/10/03 05:29:05;;;;;;;24.70;12.70;;;20.10;1.00;;;;;;5034913;28;20419;-70
2023/10/03 05:31:30;;;;;;;28.25;13.25;;;20.10;1.00;;;;;;5034482;28;20195;-69
2023/10/03 05:33:56;;;;;;;26.67;12.23;;;20.10;1.00;;;;;;5034656;28;20039;-69
2023/10/03 05:36:22;;;;;;;25.42;12.43;;;20.10;1.00;;;;;;5034455;28;20032;-69
2023/10/03 05:38:49;;;;;;;23.92;11.75;;;20.00;1.00;;;;;;5034544;28;20053;-69
2023/10/03 05:41:20;;;;;;;24.85;12.80;;;20.10;1.00;;;;;;5033857;28;20518;-69
2023/10/03 05:43:46;;;;;;;23.90;12.75;;;20.10;1.00;;;;;;5033885;28;20033;-69
2023/10/03 05:46:12;;;;;;;27.70;12.40;;;20.10;1.00;;;;;;5033932;28;20025;-69
2023/10/03 05:48:37;;;;;;;29.73;12.50;;;20.00;1.00;;;;;;5033539;28;20025;-69
2023/10/03 05:51:03;;;;;;;28.17;12.77;;;20.10;1.00;;;;;;5033841;28;20032;-69
2023/10/03 05:53:30;;;;;;;28.83;11.82;;;20.10;1.00;;;;;;5033859;28;20033;-69
2023/10/03 05:55:56;;;;;;;25.48;13.02;;;20.30;1.00;;;;;;5033766;28;20063;-69
2023/10/03 05:58:22;;;;;;;23.52;11.93;;;20.30;1.00;;;;;;5034133;28;20028;-77
2023/10/03 06:00:49;;;;;;;24.00;12.30;;;20.30;1.00;;;;;;5033850;28;20115;-69
2023/10/03 06:03:15;;;;;;;26.08;12.40;;;20.50;1.00;;;;;;5034041;28;20116;-69
2023/10/03 06:05:41;;;;;;;24.17;11.57;;;20.50;1.00;;;;;;5034242;28;20021;-69
2023/10/03 06:08:09;;;;;;;28.10;12.00;;;20.50;1.00;;;;;;5034165;28;20032;-69
2023/10/03 06:10:34;;;;;;;24.67;12.85;;;20.50;1.00;;;;;;5033772;28;20022;-69
2023/10/03 06:13:00;;;;;;;27.45;12.50;;;20.50;1.00;;;;;;5034074;28;20056;-69
2023/10/03 06:15:26;;;;;;;23.02;11.65;;;20.60;1.00;;;;;;5033782;28;20083;-69
2023/10/03 06:17:52;;;;;;;27.85;12.60;;;20.50;1.00;;;;;;5034062;28;20034;-69
2023/10/03 06:20:18;;;;;;;27.98;12.35;;;20.50;1.00;;;;;;5033760;28;20048;-69
2023/10/03 06:22:43;;;;;;;25.95;11.15;;;20.50;1.00;;;;;;5033580;28;20071;-69
2023/10/03 06:25:10;;;;;;;23.80;11.65;;;20.50;1.00;;;;;;5033503;28;20025;-69
2023/10/03 06:27:37;;;;;;;26.65;12.85;;;20.50;1.00;;;;;;5032966;28;20025;-69
2023/10/03 06:30:03;;;;;;;25.10;12.82;;;20.60;1.00;;;;;;5034010;28;20029;-69
2023/10/03 06:32:29;;;;;;;25.45;12.05;;;20.60;1.00;;;;;;5033599;28;20079;-69
2023/10/03 06:34:54;;;;;;;25.88;12.52;;;20.70;1.00;;;;;;5033119;28;20029;-69
2023/10/03 06:37:20;;;;;;;22.58;12.13;;;20.70;1.00;;;;;;5032622;28;20025;-69
2023/10/03 06:39:47;;;;;;;20.67;10.55;;;20.70;1.00;;;;;;5033718;28;20029;-69
2023/10/03 06:42:13;;;;;;;22.50;11.95;;;20.60;1.00;;;;;;5032522;28;20041;-69
2023/10/03 06:44:40;;;;;;;23.40;11.73;;;20.70;1.00;;;;;;5032920;28;20021;-75
2023/10/03 06:47:07;;;;;;;20.58;11.52;;;20.70;1.00;;;;;;5033629;28;20116;-70
2023/10/03 06:49:33;;;;;;;22.92;11.60;;;20.60;1.00;;;;;;5033005;28;20037;-69
2023/10/03 06:52:01;;;;;;;28.65;10.70;;;20.60;1.00;;;;;;5033033;28;20029;-69
2023/10/03 06:54:27;;;;;;;25.38;11.70;;;20.70;1.00;;;;;;5033482;28;20452;-70
2023/10/03 06:56:52;;;;;;;23.25;11.57;;;20.60;1.00;;;;;;5033177;28;20022;-69
2023/10/03 06:59:18;;;;;;;20.70;10.70;;;20.70;1.00;;;;;;5035957;28;20040;-69
2023/10/03 07:01:43;;;;;;;24.65;11.30;;;20.60;1.00;;;;;;5037345;28;20088;-69
2023/10/03 07:04:10;;;;;;;22.92;11.20;;;20.60;1.00;;;;;;5036989;28;20395;-69
2023/10/03 07:06:35;;;;;;;25.17;11.23;;;20.60;1.00;;;;;;5036605;28;20036;-69
2023/10/03 07:09:08;;;;;;;21.77;11.70;;;20.60;1.00;;;;;;5037128;28;20029;-69
2023/10/03 07:11:34;;;;;;;22.23;10.40;;;20.60;1.00;;;;;;5037337;28;20059;-69
2023/10/03 07:13:59;;;;;;;26.60;12.05;;;20.60;1.00;;;;;;5037192;28;20300;-69
2023/10/03 07:16:25;;;;;;;23.85;11.43;;;20.50;1.00;;;;;;5036869;28;20037;-70
2023/10/03 07:18:50;;;;;;;23.88;12.20;;;20.50;1.00;;;;;;5037295;28;20033;-69
2023/10/03 07:21:16;;;;;;;27.17;11.85;;;20.50;1.00;;;;;;5037005;28;20029;-69
2023/10/03 07:23:43;;;;;;;24.83;11.75;;;20.50;1.00;;;;;;5036938;28;20390;-69
2023/10/03 07:26:08;;;;;;;22.75;11.38;;;20.50;1.00;;;;;;5036972;28;20138;-69
2023/10/03 07:28:38;;;;;;;25.80;12.10;;;20.50;1.00;;;;;;5036303;28;20130;-70
2023/10/03 07:31:05;;;;;;;21.77;10.77;;;20.50;1.00;;;;;;5036488;28;20021;-69
2023/10/03 07:33:31;;;;;;;19.30;10.25;;;20.50;1.00;;;;;;5037066;28;20025;-77
2023/10/03 07:35:58;;;;;;;19.80;10.07;;;20.40;1.00;;;;;;5037091;28;20056;-70
2023/10/03 07:38:24;;;;;;;18.85;8.70;;;20.40;1.00;;;;;;5036628;28;20410;-70
2023/10/03 07:40:49;;;;;;;24.77;10.18;;;20.40;1.00;;;;;;5036672;28;20026;-70
2023/10/03 07:43:16;;;;;;;20.92;9.68;;;20.40;1.00;;;;;;5036370;28;20088;-69
2023/10/03 07:45:42;;;;;;;20.17;9.40;;;20.30;1.00;;;;;;5036847;28;20036;-70
2023/10/03 07:48:10;;;;;;;22.15;10.38;;;20.30;1.00;;;;;;5036765;28;20026;-69
2023/10/03 07:50:37;;;;;;;21.38;9.50;;;20.30;1.00;;;;;;5036672;28;20056;-70
2023/10/03 07:53:04;;;;;;;17.60;9.25;;;20.20;2.60;;;;;;5036304;28;20075;-69
2023/10/03 07:55:33;;;;;;;18.20;10.25;;;20.10;4.80;;;;;;5036528;28;20035;-69
2023/10/03 07:57:59;;;;;;;21.88;9.57;;;20.10;14.40;;;;;;5036488;28;20035;-70
2023/10/03 08:00:26;;;;;;;20.20;10.25;;;20.00;20.40;;;;;;5036014;28;20033;-69
2023/10/03 08:02:52;;;;;;;21.60;9.63;;;20.00;29.30;;;;;;5035918;28;20032;-70
2023/10/03 08:05:18;;;;;;;23.02;10.65;;;19.90;42.50;;;;;;5036355;28;20017;-69
2023/10/03 08:07:47;;;;;;;19.98;10.73;;;19.90;45.10;;;;;;5035162;28;20033;-69
2023/10/03 08:10:15;;;;;;;21.30;10.48;;;20.00;36.70;;;;;;5035321;28;20033;-69
2023/10/03 08:12:41;;;;;;;18.88;9.60;;;20.00;32.20;;;;;;5035809;28;20438;-70
2023/10/03 08:15:23;;;;;;;18.38;8.73;;;20.10;21.70;;;;;;5036144;28;20064;-69
2023/10/03 08:17:53;;;;;;;16.13;8.20;;;20.10;1.00;;;;;;5035037;28;20025;-69
2023/10/03 08:20:20;;;;;;;17.75;9.35;;;20.20;1.00;;;;;;5036044;28;20105;-69
2023/10/03 08:22:50;;;;;;;16.55;9.35;;;20.20;1.00;;;;;;5035308;28;20456;-70
2023/10/03 08:25:18;;;;;;;16.05;8.77;;;20.10;9.40;;;;;;5035962;28;20025;-70
2023/10/03 08:27:46;;;;;;;20.48;8.63;;;20.10;1.00;;;;;;5035674;28;20440;-70
2023/10/03 08:30:25;;;;;;;16.30;8.50;;;20.10;1.00;;;;;;5035881;28;20025;-70
2023/10/03 08:32:53;;;;;;;18.75;9.38;;;20.10;10.30;;;;;;5035668;28;20450;-70
2023/10/03 08:35:19;;;;;;;12.10;6.80;;;20.10;14.00;;;;;;5035644;28;20026;-71
2023/10/03 08:37:44;;;;;;;18.90;7.22;;;20.20;1.00;;;;;;5035947;28;20040;-70
2023/10/03 08:40:19;;;;;;;11.20;6.53;;;20.20;1.00;;;;;;5035303;28;20029;-70
2023/10/03 08:42:52;;;;;;;12.98;6.22;;;20.20;1.00;;;;;;5034490;28;20037;-69
2023/10/03 08:45:27;;;;;;;10.15;5.90;;;20.10;1.00;;;;;;5035691;28;20075;-69
2023/10/03 08:47:54;;;;;;;10.23;5.95;;;20.10;1.00;;;;;;5035611;28;20112;-69
2023/10/03 08:50:34;;;;;;;9.75;5.85;;;20.00;1.00;;;;;;5035070;28;20468;-69
2023/10/03 08:53:16;;;;;;;12.75;6.13;;;20.00;1.00;;;;;;5035547;28;20029;-69
2023/10/03 08:55:44;;;;;;;11.02;5.95;;;20.00;1.00;;;;;;5035160;28;20030;-69
2023/10/03 08:58:13;;;;;;;9.90;6.18;;;19.90;1.00;;;;;;5034354;28;20029;-69
2023/10/03 09:00:45;;;;;;;11.55;6.03;;;19.90;1.00;;;;;;5035185;28;20036;-69
2023/10/03 09:03:13;;;;;;;12.75;6.40;;;19.80;1.00;;;;;;5034940;28;20487;-69
2023/10/03 09:05:40;;;;;;;12.18;6.20;;;19.80;1.00;;;;;;5035263;28;20111;-69
2023/10/03 09:08:08;;;;;;;17.30;6.25;;;19.80;1.00;;;;;;5035176;28;20022;-70
2023/10/03 09:10:42;;;;;;;11.73;6.60;;;19.90;1.00;;;;;;5034196;28;20025;-69
2023/10/03 09:13:15;;;;;;;11.52;5.85;;;19.90;1.00;;;;;;5035002;28;20036;-70
2023/10/03 09:15:42;;;;;;;10.43;5.47;;;19.90;1.00;;;;;;5034993;28;20036;-69
2023/10/03 09:18:10;;;;;;;11.88;6.07;;;20.10;1.00;;;;;;5034687;28;20056;-69
2023/10/03 09:20:37;;;;;;;12.70;6.03;;;20.20;1.00;;;;;;5034676;28;20379;-69
2023/10/03 09:23:05;;;;;;;12.02;5.60;;;20.20;1.00;;;;;;5033352;28;20372;-69
2023/10/03 09:25:32;;;;;;;8.75;5.80;;;20.10;1.00;;;;;;5034735;28;20083;-69
2023/10/03 09:28:06;;;;;;;9.77;5.43;;;20.00;1.00;;;;;;5034788;28;20461;-69
2023/10/03 09:30:40;;;;;;;11.65;6.32;;;20.00;1.00;;;;;;5034056;28;20032;-69
2023/10/03 09:33:08;;;;;;;12.68;6.25;;;19.80;1.00;;;;;;5034405;28;20087;-69
2023/10/03 09:35:34;;;;;;;13.73;5.90;;;19.80;6.80;;;;;;5034657;28;20029;-69
2023/10/03 09:38:05;;;;;;;10.13;6.55;;;19.70;3.10;;;;;;5033901;28;20601;-69
2023/10/03 09:40:49;;;;;;;16.10;6.07;;;19.70;1.00;;;;;;5034341;28;20116;-69
2023/10/03 09:43:17;;;;;;;12.50;5.88;;;19.80;1.00;;;;;;5034073;28;20090;-69
2023/10/03 09:45:46;;;;;;;13.38;6.25;;;19.80;1.00;;;;;;5034006;28;20494;-69
2023/10/03 09:48:13;;;;;;;13.05;6.38;;;19.80;1.00;;;;;;5034151;28;20032;-69
2023/10/03 09:50:51;;;;;;;10.32;5.95;;;19.80;1.00;;;;;;5034254;28;20521;-69
2023/10/03 09:53:18;;;;;;;11.75;6.25;;;19.90;1.20;;;;;;5033668;28;20036;-69
2023/10/03 09:55:46;;;;;;;12.10;5.85;;;19.90;1.00;;;;;;5033696;28;20391;-69
2023/10/03 09:58:13;;;;;;;11.60;6.65;;;19.90;2.50;;;;;;5033556;28;20033;-70
2023/10/03 10:00:50;;;;;;;11.52;6.00;;;19.80;5.30;;;;;;5033920;28;20041;-70
2023/10/03 10:03:25;;;;;;;11.00;6.70;;;19.70;7.50;;;;;;5034170;28;20029;-70
2023/10/03 10:06:12;;;;;;;8.55;6.28;;;19.70;15.60;;;;;;5034005;28;20036;-69
2023/10/03 10:08:49;;;;;;;11.38;6.10;;;19.70;14.10;;;;;;5033984;28;20022;-70
2023/10/03 10:11:15;;;;;;;12.85;6.95;;;19.70;19.80;;;;;;5033783;28;20025;-70
2023/10/03 10:14:01;;;;;;;10.77;6.40;;;19.80;16.00;;;;;;5034212;28;20345;-69
2023/10/03 10:16:28;;;;;;;13.20;6.75;;;19.90;15.10;;;;;;5033414;28;20033;-70
2023/10/03 10:21:37;;;;;;;11.07;7.43;;;20.00;14.30;;;;;;5091584;27;20110;-69
2023/10/03 10:24:20;;;;;;;13.60;6.70;;;20.00;9.30;;;;;;5091474;28;20078;-70
2023/10/03 10:26:48;;;;;;;13.25;7.82;;;20.00;2.40;;;;;;5091394;28;20070;-69
2023/10/03 10:29:19;;;;;;;13.25;7.63;;;19.90;1.10;;;;;;5091355;28;20411;-69
2023/10/03 10:31:49;;;;;;;13.70;7.28;;;19.80;11.70;;;;;;5091211;28;20017;-70
2023/10/03 10:34:26;;;;;;;12.82;7.20;;;19.70;14.90;;;;;;5091544;28;20022;-70
2023/10/03 10:39:56;;;;;;;12.75;8.10;;;19.60;37.20;;;;;;5132226;27;20768;-70
2023/10/03 10:42:26;;;;;;;11.02;8.32;;;19.20;99.90;;;;;;5132357;28;20380;-70
2023/10/03 10:47:45;;;;;;;19.38;10.10;;;18.90;99.90;;;;;;5111990;27;20434;-70
2023/10/03 10:50:11;;;;;;;16.00;10.23;;;18.70;99.90;;;;;;5111382;28;20046;-70
2023/10/03 10:52:56;;;;;;;17.58;10.90;;;18.60;99.90;;;;;;5111554;28;20485;-71
2023/10/03 10:55:23;;;;;;;17.08;11.35;;;18.60;99.90;;;;;;5111609;28;20024;-70
2023/10/03 10:58:12;;;;;;;23.88;12.13;;;18.60;99.90;;;;;;5111990;28;20031;-70
2023/10/03 11:00:39;;;;;;;19.05;12.02;;;18.50;99.90;;;;;;5111805;28;20027;-70
2023/10/03 11:03:06;;;;;;;19.17;11.98;;;18.40;99.90;;;;;;5111858;28;20416;-70
2023/10/03 11:05:50;;;;;;;19.00;12.32;;;18.40;99.90;;;;;;5111066;27;20500;-70
2023/10/03 11:08:17;;;;;;;21.45;12.57;;;18.30;99.90;;;;;;5111726;28;20059;-70
2023/10/03 11:10:58;;;;;;;23.42;13.38;;;18.30;99.90;;;;;;5111770;28;20454;-70
2023/10/03 11:13:24;;;;;;;18.13;12.00;;;18.30;99.90;;;;;;5111359;28;20026;-70
2023/10/03 11:15:51;;;;;;;19.20;11.82;;;18.20;99.90;;;;;;5111219;28;20020;-70
2023/10/03 11:18:27;;;;;;;19.25;11.80;;;18.20;99.90;;;;;;5111279;28;20031;-70
2023/10/03 11:20:55;;;;;;;21.38;12.70;;;18.20;99.90;;;;;;5111007;28;20404;-70
2023/10/03 11:23:23;;;;;;;23.23;12.93;;;18.20;99.90;;;;;;5111088;27;20028;-71
2023/10/03 11:25:56;;;;;;;19.23;12.57;;;18.20;99.90;;;;;;5110680;28;20081;-70
2023/10/03 11:28:22;;;;;;;18.27;12.55;;;18.20;99.90;;;;;;5110282;28;20020;-70
2023/10/03 11:31:05;;;;;;;21.63;12.10;;;18.20;99.90;;;;;;5110808;28;20024;-70
2023/10/03 11:33:46;;;;;;;14.38;12.48;;;18.30;99.90;;;;;;5110871;28;20110;-70
2023/10/03 11:36:13;;;;;;;19.65;13.00;;;18.30;99.90;;;;;;5110896;28;20027;-70
2023/10/03 11:38:54;;;;;;;18.75;13.13;;;18.20;99.90;;;;;;5109937;28;20081;-70
2023/10/03 11:41:37;;;;;;;18.90;12.93;;;18.10;99.90;;;;;;5111416;28;20118;-70
2023/10/03 11:44:04;;;;;;;17.45;11.35;;;18.10;99.90;;;;;;5110259;28;20020;-71
2023/10/03 11:46:37;;;;;;;15.20;10.10;;;18.10;99.90;;;;;;5109852;27;20070;-70
2023/10/03 11:49:03;;;;;;;9.65;5.65;;;18.20;99.90;;;;;;5110627;27;20020;-70
2023/10/03 11:51:29;;;;;;;8.02;5.05;;;18.20;99.90;;;;;;5110948;28;20512;-70
2023/10/03 11:53:55;;;;;;;10.02;3.95;;;18.30;99.90;;;;;;5110514;28;20016;-70
2023/10/03 11:56:20;;;;;;;6.75;3.40;;;18.40;99.90;;;;;;5110416;28;20031;-70
2023/10/03 11:58:46;;;;;;;3.22;1.80;;;18.50;99.90;;;;;;5099010;28;20370;-71
2023/10/03 12:01:12;;;;;;;2.40;1.15;;;18.50;99.90;;;;;;5096475;28;20020;-71
2023/10/03 12:03:37;;;;;;;2.22;1.38;;;18.30;98.10;;;;;;5097086;28;20024;-70
2023/10/03 12:06:04;;;;;;;2.35;1.05;;;18.30;99.90;;;;;;5096310;28;20031;-70
2023/10/03 12:08:32;;;;;;;2.20;1.00;;;18.30;93.30;;;;;;5095772;28;20074;-70
2023/10/03 12:10:57;;;;;;;2.95;1.00;;;18.30;92.80;;;;;;5096797;28;20024;-70
2023/10/03 12:13:23;;;;;;;0.98;0.88;;;18.40;94.90;;;;;;5096635;28;20462;-70
2023/10/03 12:15:49;;;;;;;2.78;1.10;;;18.50;76.20;;;;;;5096853;28;20032;-70
2023/10/03 12:18:15;;;;;;;1.98;1.23;;;18.70;92.20;;;;;;5096497;28;20066;-70
2023/10/03 12:20:43;;;;;;;3.88;1.50;;;18.70;54.30;;;;;;5096427;28;20024;-70
2023/10/03 12:23:09;;;;;;;2.95;1.35;;;18.90;50.30;;;;;;5096247;28;20035;-70
2023/10/03 12:25:35;;;;;;;2.30;1.30;;;19.00;37.80;;;;;;5096231;28;20028;-70
2023/10/03 12:28:01;;;;;;;3.00;1.60;;;19.00;49.10;;;;;;5096434;28;20474;-70
2023/10/03 12:30:26;;;;;;;4.50;1.80;;;18.90;32.80;;;;;;5095718;28;20078;-70
2023/10/03 12:32:53;;;;;;;3.17;1.30;;;18.80;41.20;;;;;;5096549;28;20057;-70
2023/10/03 12:35:19;;;;;;;5.57;1.70;;;18.70;49.90;;;;;;5096264;28;20016;-70
2023/10/03 12:37:47;;;;;;;4.05;1.90;;;18.40;67.10;;;;;;5096153;28;20024;-70
2023/10/03 12:40:16;;;;;;;2.72;1.42;;;18.30;80.70;;;;;;5096355;28;20020;-70
2023/10/03 12:42:50;;;;;;;3.85;1.40;;;18.10;80.30;;;;;;5095833;28;20020;-69
2023/10/03 12:45:17;;;;;;;1.90;1.17;;;17.80;91.20;;;;;;5095954;28;20028;-70
2023/10/03 12:47:47;;;;;;;2.38;1.17;;;17.60;99.90;;;;;;5095691;28;20123;-70
2023/10/03 12:50:16;;;;;;;1.83;1.10;;;17.50;99.90;;;;;;5096171;28;20039;-70